الصفحة الرئيسية
METAR-TAF:

METAR-TAF

مطار :

مطار صديق أبو بكر الثالث الدولي

Sokoto, نيجيريا

دائرة عرض: 13-01N, خط طول: 005-15E, ارتفاع: 351 متر

مراقبة الطقس الحالي

تاريخ ووقت الإصدار 25 دقيقة قبل الساعة 11:00UTC
ريح 12 عقدة من الغرب
درجة الحرارة 37°درجة مئوية
الرطوبة 45%
ضغط 1012 hPa
الرؤية 10 كم أو أكثر
الغيوم لا تقل 1500 م ولا وجود لمزنة ركامية السحاب الأسود

METAR: DNSO 141100Z 26012KT CAVOK 37/23 Q1012

زمن: 12:25 (11:25 UTC)

توقعات

تاريخ ووقت الإصدار 6ساعات و 25 دقيقة قبل الساعة 05:00UTC
التوقعات صالحة من14 الساعة 06 UTC إلى 15 الساعة 12 UTC
ريح 10 عقدة من الغرب
الرؤية 10 كم أو أكثر
الغيوم لا تقل 1500 م ولا وجود لمزنة ركامية السحاب الأسود
مؤقت
من 14 الساعة 15 UTC إلى 14 الساعة 18 UTC
غيوم متفرقة على ارتفاع 1300 قدم
غيوم قليلة على ارتفاع 2000 قدم, مزنة ركامية.
عاصفة رعدية,

TAF: DNSO 140500Z 1406/1512 26010KT CAVOK TEMPO 1415/1418 TS SCT013 FEW020CB

أرصاد الطقس والتوقعات من أكثر من 4000 مطار (تقارير الطقس للمطار METAR والتنبؤ بالطقس بالمطارTAF).

المحطات المتاحة هي النقط الصفراء والحمراء على الخريطة.

حرك المؤشر فوق النقطة لمعرفة اسم المحطة.

ثم انقر لمعرفة أرصاد وتوقعات الطقس.

لتغيير الخارطة: اضغط على الأزرار الخضراء مع رمز الصليب الأسود للتكبير. على الزر الأخضر مع شرطة للتصغير، أو على الأسهم الخضراء للخرائط المجاورة.


METAR-TAF: